createdAt,value
2022-10-08T00:04:04.728Z,9.94
2022-10-08T00:09:08.778Z,9.83
2022-10-08T00:14:12.941Z,9.88
2022-10-08T00:19:17.129Z,9.86
2022-10-08T00:24:21.233Z,9.81
2022-10-08T00:29:25.422Z,9.70
2022-10-08T00:34:28.221Z,9.70
2022-10-08T00:39:30.966Z,9.59
2022-10-08T00:44:54.894Z,9.57
2022-10-08T00:50:00.436Z,9.59
2022-10-08T00:55:06.330Z,9.55
2022-10-08T01:00:14.975Z,9.52
2022-10-08T01:05:20.675Z,9.60
2022-10-08T01:10:33.348Z,9.84
2022-10-08T01:15:43.435Z,10.00
2022-10-08T01:20:53.204Z,10.21
2022-10-08T01:26:03.133Z,10.28
2022-10-08T01:31:13.481Z,10.15
2022-10-08T01:36:18.595Z,9.98
2022-10-08T01:41:25.397Z,10.07
2022-10-08T01:46:31.724Z,10.22
2022-10-08T01:51:39.006Z,9.87
2022-10-08T01:56:44.412Z,10.15
2022-10-08T02:01:57.422Z,10.19
2022-10-08T02:07:02.796Z,10.12
2022-10-08T02:12:07.120Z,10.17
2022-10-08T02:17:22.483Z,10.04
2022-10-08T02:22:30.284Z,10.20
2022-10-08T02:27:46.490Z,10.00
2022-10-08T02:32:55.926Z,10.07
2022-10-08T02:38:03.022Z,9.92
2022-10-08T02:43:10.987Z,9.85
2022-10-08T02:48:22.897Z,9.80
2022-10-08T02:53:26.613Z,9.81
2022-10-08T02:58:29.750Z,9.82
2022-10-08T03:03:37.741Z,9.96
2022-10-08T03:08:46.136Z,10.11
2022-10-08T03:13:51.342Z,10.21
2022-10-08T03:18:59.003Z,10.10
2022-10-08T03:24:01.760Z,10.14
2022-10-08T03:29:04.623Z,9.81
2022-10-08T03:34:08.832Z,9.77
2022-10-08T03:39:12.163Z,10.22
2022-10-08T03:44:14.917Z,10.13
2022-10-08T03:49:18.865Z,10.05
2022-10-08T03:54:21.654Z,10.35
2022-10-08T03:59:24.444Z,10.47
2022-10-08T04:04:28.585Z,10.51
2022-10-08T04:09:31.349Z,10.63
2022-10-08T04:14:33.969Z,10.68
2022-10-08T04:19:38.186Z,10.69
2022-10-08T04:24:40.941Z,10.55
2022-10-08T04:29:43.695Z,10.42
2022-10-08T04:34:47.902Z,9.80
2022-10-08T04:39:50.872Z,10.26
2022-10-08T04:44:53.923Z,10.13
2022-10-08T04:49:58.164Z,10.10
2022-10-08T04:55:01.066Z,9.88
2022-10-08T05:00:18.216Z,9.70
2022-10-08T05:05:23.919Z,9.76
2022-10-08T05:10:26.816Z,10.00
2022-10-08T05:15:29.871Z,9.96
2022-10-08T05:20:36.843Z,9.85
2022-10-08T05:25:39.664Z,9.94
2022-10-08T05:30:42.277Z,9.88
2022-10-08T05:35:46.389Z,9.57
2022-10-08T05:40:49.163Z,9.68
2022-10-08T05:45:52.042Z,9.73
2022-10-08T05:50:56.218Z,9.86
2022-10-08T05:56:02.613Z,9.53
2022-10-08T06:01:07.643Z,9.70
2022-10-08T06:06:13.013Z,9.90
2022-10-08T06:11:15.771Z,9.75
2022-10-08T06:16:18.493Z,9.57
2022-10-08T06:21:25.347Z,9.94
2022-10-08T06:26:35.177Z,9.86
2022-10-08T06:31:38.709Z,10.00
2022-10-08T06:36:43.040Z,9.70
2022-10-08T06:41:46.058Z,10.21
2022-10-08T06:46:48.928Z,10.32
2022-10-08T06:51:53.130Z,10.05
2022-10-08T06:56:55.949Z,10.37
2022-10-08T07:01:58.558Z,10.10
2022-10-08T07:07:02.696Z,10.29
2022-10-08T07:12:05.457Z,10.19
2022-10-08T07:17:08.021Z,9.87
2022-10-08T07:22:12.165Z,10.27
2022-10-08T07:27:15.284Z,10.24
2022-10-08T07:32:18.044Z,10.39
2022-10-08T07:37:21.961Z,10.34
2022-10-08T07:42:24.704Z,10.09
2022-10-08T07:47:27.291Z,10.31
2022-10-08T07:52:32.123Z,10.96
2022-10-08T07:57:34.949Z,10.92
2022-10-08T08:02:37.549Z,10.92
2022-10-08T08:07:41.718Z,10.98
2022-10-08T08:12:44.766Z,11.13
2022-10-08T08:17:47.702Z,11.08
2022-10-08T08:22:51.669Z,10.90
2022-10-08T08:27:54.432Z,10.79
2022-10-08T08:32:57.255Z,11.06
2022-10-08T08:38:01.459Z,11.14
2022-10-08T08:43:04.220Z,10.99
2022-10-08T08:48:08.474Z,11.69
2022-10-08T08:53:12.817Z,12.00
2022-10-08T08:58:33.800Z,11.84
2022-10-08T09:03:41.225Z,12.41
2022-10-08T09:08:49.409Z,12.19
2022-10-08T09:13:57.627Z,12.62
2022-10-08T09:19:00.383Z,13.47
2022-10-08T09:24:04.649Z,13.06
2022-10-08T09:29:07.489Z,13.23
2022-10-08T09:34:19.744Z,13.17
2022-10-08T09:39:26.298Z,14.02
2022-10-08T09:44:40.495Z,13.57
2022-10-08T09:49:43.938Z,12.90
2022-10-08T09:54:51.252Z,13.80
2022-10-08T09:59:57.049Z,14.20
2022-10-08T10:05:01.078Z,13.94
2022-10-08T10:10:10.155Z,12.76
2022-10-08T10:15:17.177Z,12.56
2022-10-08T10:20:23.215Z,12.44
2022-10-08T10:25:35.642Z,12.51
2022-10-08T10:30:50.448Z,13.00
2022-10-08T10:35:57.061Z,14.46
2022-10-08T10:41:10.868Z,15.83
2022-10-08T10:46:25.588Z,14.90
2022-10-08T10:51:38.861Z,13.14
2022-10-08T10:56:48.521Z,16.41
2022-10-08T11:02:00.247Z,14.94
2022-10-08T11:07:07.074Z,14.73
2022-10-08T11:12:27.837Z,14.01
2022-10-08T11:17:42.727Z,14.74
2022-10-08T11:22:56.244Z,16.39
2022-10-08T11:28:16.734Z,15.68
2022-10-08T11:33:19.999Z,16.19
2022-10-08T11:38:31.488Z,15.01
2022-10-08T11:43:44.429Z,14.42
2022-10-08T11:48:48.022Z,13.56
2022-10-08T11:54:03.768Z,14.40
2022-10-08T11:59:25.449Z,15.83
2022-10-08T12:04:34.590Z,17.00
2022-10-08T12:10:01.945Z,15.95
2022-10-08T12:15:45.938Z,17.33
2022-10-08T12:21:27.370Z,15.10
2022-10-08T12:26:30.243Z,13.94
2022-10-08T12:31:39.912Z,13.65
2022-10-08T12:36:54.739Z,14.72
2022-10-08T12:42:08.501Z,16.77
2022-10-08T12:47:25.388Z,17.00
2022-10-08T12:52:33.654Z,17.18
2022-10-08T12:57:39.048Z,16.81
2022-10-08T13:02:43.725Z,17.84
2022-10-08T13:07:46.834Z,17.27
2022-10-08T13:13:03.767Z,18.35
2022-10-08T13:18:15.780Z,18.12
2022-10-08T13:23:33.821Z,18.50
2022-10-08T13:28:59.270Z,20.74
2022-10-08T13:34:05.050Z,20.25
2022-10-08T13:39:19.328Z,19.29
2022-10-08T13:44:22.332Z,19.47
2022-10-08T13:49:28.028Z,18.01
2022-10-08T13:54:33.419Z,18.07
2022-10-08T13:59:36.233Z,19.08
2022-10-08T14:04:40.468Z,16.53
2022-10-08T14:09:43.326Z,14.49
2022-10-08T14:14:46.379Z,13.97
2022-10-08T14:19:51.174Z,13.47
2022-10-08T14:24:54.009Z,12.65
2022-10-08T14:29:56.815Z,14.93
2022-10-08T14:35:00.993Z,15.64
2022-10-08T14:40:04.186Z,17.16
2022-10-08T14:45:07.889Z,17.66
2022-10-08T14:50:13.488Z,17.05
2022-10-08T14:55:16.507Z,16.72
2022-10-08T15:00:19.477Z,16.85
2022-10-08T15:05:23.622Z,17.44
2022-10-08T15:10:26.450Z,16.94
2022-10-08T15:15:29.247Z,16.32
2022-10-08T15:20:34.278Z,15.57
2022-10-08T15:25:37.434Z,16.54
2022-10-08T15:30:40.945Z,16.73
2022-10-08T15:35:45.073Z,16.91
2022-10-08T15:40:47.930Z,16.08
2022-10-08T15:45:50.774Z,15.77
2022-10-08T15:50:59.854Z,15.78
2022-10-08T15:56:02.839Z,15.95
2022-10-08T16:01:09.996Z,15.36
2022-10-08T16:06:16.941Z,14.51
2022-10-08T16:11:21.822Z,14.09
2022-10-08T16:16:24.624Z,13.65
2022-10-08T16:21:30.676Z,13.53
2022-10-08T16:26:35.391Z,13.58
2022-10-08T16:31:39.283Z,13.24
2022-10-08T16:36:44.126Z,13.15
2022-10-08T16:41:47.238Z,13.05
2022-10-08T16:46:51.712Z,12.68
2022-10-08T16:51:58.213Z,12.32
2022-10-08T16:57:01.091Z,11.73
2022-10-08T17:02:03.932Z,11.76
2022-10-08T17:07:08.616Z,11.59
2022-10-08T17:12:11.377Z,11.33
2022-10-08T17:17:14.544Z,11.21
2022-10-08T17:22:18.726Z,11.05
2022-10-08T17:27:21.484Z,11.07
2022-10-08T17:32:24.272Z,11.38
2022-10-08T17:37:28.369Z,11.31
2022-10-08T17:42:31.244Z,11.30
2022-10-08T17:47:33.984Z,11.04
2022-10-08T17:52:38.117Z,11.05
2022-10-08T17:57:40.892Z,10.77
2022-10-08T18:02:43.704Z,10.87
2022-10-08T18:07:47.815Z,10.62
2022-10-08T18:12:50.809Z,10.79
2022-10-08T18:17:53.739Z,10.69
2022-10-08T18:22:57.654Z,10.76
2022-10-08T18:28:00.354Z,10.56
2022-10-08T18:33:02.923Z,10.69
2022-10-08T18:38:06.991Z,10.53
2022-10-08T18:43:09.734Z,10.49
2022-10-08T18:48:12.437Z,10.54
2022-10-08T18:53:16.374Z,10.57
2022-10-08T18:58:19.092Z,10.46
2022-10-08T19:03:21.659Z,10.48
2022-10-08T19:08:25.806Z,10.35
2022-10-08T19:13:28.498Z,10.36
2022-10-08T19:18:31.260Z,10.30
2022-10-08T19:23:35.410Z,10.14
2022-10-08T19:28:39.734Z,10.10
2022-10-08T19:33:42.814Z,10.00
2022-10-08T19:38:52.371Z,9.89
2022-10-08T19:43:56.608Z,9.96
2022-10-08T19:49:01.530Z,9.99
2022-10-08T19:54:06.415Z,9.72
2022-10-08T19:59:11.523Z,9.77
2022-10-08T20:04:16.646Z,9.75
2022-10-08T20:09:21.077Z,9.59
2022-10-08T20:14:23.829Z,9.63
2022-10-08T20:19:26.412Z,9.59
2022-10-08T20:24:30.521Z,9.45
2022-10-08T20:29:33.965Z,9.49
2022-10-08T20:34:36.917Z,9.42
2022-10-08T20:39:41.098Z,9.41
2022-10-08T20:44:43.812Z,9.37
2022-10-08T20:49:46.402Z,9.25
2022-10-08T20:54:50.517Z,9.29
2022-10-08T20:59:54.148Z,9.31
2022-10-08T21:04:57.147Z,9.32
2022-10-08T21:10:01.575Z,9.27
2022-10-08T21:15:04.655Z,9.28
2022-10-08T21:20:08.508Z,9.17
2022-10-08T21:25:12.889Z,9.04
2022-10-08T21:30:15.785Z,8.93
2022-10-08T21:35:18.584Z,8.86
2022-10-08T21:40:22.564Z,8.85
2022-10-08T21:45:25.380Z,8.87
2022-10-08T21:50:28.203Z,8.84
2022-10-08T21:55:32.182Z,8.84
2022-10-08T22:00:35.124Z,8.79
2022-10-08T22:05:37.893Z,8.51
2022-10-08T22:10:41.788Z,8.47
2022-10-08T22:15:52.478Z,8.38
2022-10-08T22:20:55.730Z,8.64
2022-10-08T22:26:01.382Z,8.70
2022-10-08T22:31:06.222Z,8.81
2022-10-08T22:36:10.782Z,8.83
2022-10-08T22:41:17.124Z,8.66
2022-10-08T22:46:22.533Z,8.57
2022-10-08T22:51:25.410Z,8.51
2022-10-08T22:56:31.442Z,8.40
2022-10-08T23:01:34.213Z,8.40
2022-10-08T23:06:37.238Z,8.28
2022-10-08T23:11:41.365Z,8.30
2022-10-08T23:16:44.222Z,8.41
2022-10-08T23:21:47.022Z,8.39
2022-10-08T23:26:50.983Z,8.40
2022-10-08T23:31:54.504Z,8.39
2022-10-08T23:36:57.265Z,8.41
2022-10-08T23:42:01.446Z,8.40
2022-10-08T23:47:04.209Z,8.31
2022-10-08T23:52:06.767Z,8.21
2022-10-08T23:57:10.877Z,8.12
